John Murtha Johnstown Cambria County Airport
KJST : now visible

Airfield :











YOU CAN JOIN US ON...

 
LOGIN :

Register | Disclaimer

   EN    FR    IT 

 









Legend :    VFR   Marginal VFR   IFR   Intensive IFR   Very Intensive IFR
Visi :
Ceiling :
>= 8 km
>= 3000ft
5 to 8 km
1000 to 3000 ft
1500m to 5 km
500 to 1000 ft
800 to 1500m
200 to 500 ft
< 800m
< 200 ft
Symbols :   Thunderstorms  Fog  Heavy snow  Heavy precipitations  Wind > 20 kt






- Airport Elevation : 2284 ft
- IATA code : JST


KJST - John Murtha Johnstown Cambria County

CURRENT METAR :
  • 101054Z AUTO 16007KT 8SM OVC006 12/10 A2996 RMK AO2 SLP145 T01170100

EXPIRED METARs :
  • 100954Z AUTO 18007KT 9SM OVC006 12/10 A2995 RMK AO2 SLP144 T01170100
  • 100911Z AUTO 17008KT 8SM OVC006 11/10 A2998 RMK AO2 CIG 003V009 T01110100
  • 100854Z AUTO 18008KT 6SM BR OVC003 11/10 A2998 RMK AO2 CIG 002V006 SLP154 T01110100 55010
  • 100845Z AUTO 18010KT 5SM BR OVC003 11/10 A2998 RMK AO2 PRESRR T01110100
  • 100828Z AUTO 17010KT 2 1/2SM BR OVC003 11/10 A2996 RMK AO2 T01060100

TAF KJST
Valid from the 10 at 09:00 until the 11 at 06:00 UTC


100923Z 1009/1106 16006KT 5SM BR OVC006
FM101300 15006KT P6SM SCT010
FM101700 14011G17KT P6SM SCT020 OVC250
FM110300 13013KT 5SM -RA BKN015 WS020/16045KT
KZOB FIR / North America



MET'MAP, your aeronautical weather chart ! - Copyright ORBIFLY December 2007 - Disclaimer

ORBIFLY MET'MAP TEAM :

Programming & Development : Alexandra Zaïnal
Concept & original design : Baudouin d'Aumeries
Assistance for programming : Marc-Olivier Méhu
Technical & hardware support : Manuel Goepfert

Contact : metmap@orbifly.com




SOURCES & CREDITS :

   NOAA       Earth
Advisory